Terminal Aerodrome Forecast
Issued by NWS Twin Cities, MN

Home | Current Version | Previous Version | Graphics & Text | Print | Product List | Glossary On
Versions: 1 2 3 4 5 6 7 8 9 10 11 12 13 14 15 16 17
495
FTUS43 KMPX 222336
TAFSTC
TAF
KSTC 222336Z 2300/2324 33011KT P6SM VCSH SCT015 OVC035
     FM230200 34012KT P6SM VCSH OVC012
     FM230700 36008KT P6SM OVC020
     FM231500 03010KT P6SM OVC035=

USA.gov is the U.S. government's official web portal to all federal, state and local government web resources and services.